sensor_id;sensor_type;location;lat;lon;timestamp;pressure;altitude;pressure_sealevel;temperature;humidity
6038;BME280;3047;42.600;23.470;2022-09-17T00:02:14;92291.88;;;18.94;100.00
6038;BME280;3047;42.600;23.470;2022-09-17T00:04:41;91948.28;;;16.98;99.56
6038;BME280;3047;42.600;23.470;2022-09-17T00:07:10;92288.84;;;18.89;100.00
6038;BME280;3047;42.600;23.470;2022-09-17T00:09:36;92307.56;;;18.89;100.00
6038;BME280;3047;42.600;23.470;2022-09-17T00:12:04;92218.53;;;18.35;100.00
6038;BME280;3047;42.600;23.470;2022-09-17T00:14:31;92204.50;;;18.17;100.00
6038;BME280;3047;42.600;23.470;2022-09-17T00:16:57;92226.41;;;18.32;100.00
6038;BME280;3047;42.600;23.470;2022-09-17T00:19:24;92261.31;;;18.44;100.00
6038;BME280;3047;42.600;23.470;2022-09-17T00:21:51;92296.00;;;18.84;100.00
6038;BME280;3047;42.600;23.470;2022-09-17T00:24:19;92185.00;;;18.16;100.00
6038;BME280;3047;42.600;23.470;2022-09-17T00:26:47;92271.47;;;18.81;100.00
6038;BME280;3047;42.600;23.470;2022-09-17T00:29:14;92271.53;;;18.68;100.00
6038;BME280;3047;42.600;23.470;2022-09-17T00:31:41;92202.00;;;18.28;100.00
6038;BME280;3047;42.600;23.470;2022-09-17T00:34:08;92276.69;;;18.80;100.00
6038;BME280;3047;42.600;23.470;2022-09-17T00:36:37;92269.47;;;18.73;100.00
6038;BME280;3047;42.600;23.470;2022-09-17T00:39:06;92269.47;;;18.73;100.00
6038;BME280;3047;42.600;23.470;2022-09-17T00:41:36;92256.94;;;18.58;100.00
6038;BME280;3047;42.600;23.470;2022-09-17T00:47:03;92264.63;;;18.58;100.00
6038;BME280;3047;42.600;23.470;2022-09-17T00:49:32;92199.81;;;18.11;100.00
6038;BME280;3047;42.600;23.470;2022-09-17T00:52:10;92254.25;;;18.48;100.00
6038;BME280;3047;42.600;23.470;2022-09-17T00:54:40;92149.78;;;17.84;100.00
6038;BME280;3047;42.600;23.470;2022-09-17T00:57:09;92112.91;;;17.51;100.00
6038;BME280;3047;42.600;23.470;2022-09-17T00:59:37;92274.63;;;18.61;100.00
6038;BME280;3047;42.600;23.470;2022-09-17T01:02:11;92052.78;;;17.23;100.00
6038;BME280;3047;42.600;23.470;2022-09-17T01:04:38;92092.88;;;17.34;100.00
6038;BME280;3047;42.600;23.470;2022-09-17T01:07:09;92256.81;;;18.48;100.00
6038;BME280;3047;42.600;23.470;2022-09-17T01:09:42;92283.75;;;18.41;100.00
6038;BME280;3047;42.600;23.470;2022-09-17T01:12:42;92287.50;;;18.48;100.00
6038;BME280;3047;42.600;23.470;2022-09-17T01:15:22;92218.97;;;18.05;100.00
6038;BME280;3047;42.600;23.470;2022-09-17T01:18:03;91980.97;;;16.80;100.00
6038;BME280;3047;42.600;23.470;2022-09-17T01:21:06;92236.94;;;18.51;100.00
6038;BME280;3047;42.600;23.470;2022-09-17T01:24:08;92262.66;;;18.61;100.00
6038;BME280;3047;42.600;23.470;2022-09-17T01:29:55;92214.06;;;18.02;100.00
6038;BME280;3047;42.600;23.470;2022-09-17T01:32:32;92241.81;;;18.19;100.00
6038;BME280;3047;42.600;23.470;2022-09-17T01:35:08;92166.25;;;17.80;100.00
6038;BME280;3047;42.600;23.470;2022-09-17T01:37:56;92230.53;;;17.98;100.00
6038;BME280;3047;42.600;23.470;2022-09-17T01:40:28;92144.47;;;17.50;100.00
6038;BME280;3047;42.600;23.470;2022-09-17T01:43:00;92228.78;;;18.11;100.00
6038;BME280;3047;42.600;23.470;2022-09-17T01:45:34;92224.00;;;17.94;100.00
6038;BME280;3047;42.600;23.470;2022-09-17T01:48:08;92114.63;;;17.27;100.00
6038;BME280;3047;42.600;23.470;2022-09-17T01:50:40;92275.53;;;18.24;100.00
6038;BME280;3047;42.600;23.470;2022-09-17T01:53:09;92279.50;;;18.28;100.00
6038;BME280;3047;42.600;23.470;2022-09-17T01:55:39;92032.00;;;16.67;100.00
6038;BME280;3047;42.600;23.470;2022-09-17T01:58:24;92203.56;;;17.94;100.00
6038;BME280;3047;42.600;23.470;2022-09-17T02:00:57;92199.47;;;18.04;100.00
6038;BME280;3047;42.600;23.470;2022-09-17T02:03:30;92130.16;;;17.85;100.00
6038;BME280;3047;42.600;23.470;2022-09-17T02:06:00;92097.41;;;17.78;100.00
6038;BME280;3047;42.600;23.470;2022-09-17T02:08:40;91967.00;;;17.10;100.00
6038;BME280;3047;42.600;23.470;2022-09-17T02:11:11;92157.78;;;18.50;100.00
6038;BME280;3047;42.600;23.470;2022-09-17T02:13:43;91917.13;;;17.05;100.00
6038;BME280;3047;42.600;23.470;2022-09-17T02:16:15;92123.47;;;18.41;100.00
6038;BME280;3047;42.600;23.470;2022-09-17T02:18:48;92184.28;;;19.18;93.41
6038;BME280;3047;42.600;23.470;2022-09-17T02:21:21;92206.63;;;19.49;90.69
6038;BME280;3047;42.600;23.470;2022-09-17T02:23:57;92209.53;;;19.67;100.00
6038;BME280;3047;42.600;23.470;2022-09-17T02:26:28;92197.41;;;19.47;100.00
6038;BME280;3047;42.600;23.470;2022-09-17T02:28:58;92113.41;;;19.07;100.00
6038;BME280;3047;42.600;23.470;2022-09-17T02:31:27;92154.81;;;19.46;100.00
6038;BME280;3047;42.600;23.470;2022-09-17T02:33:58;92151.81;;;19.30;100.00
6038;BME280;3047;42.600;23.470;2022-09-17T02:36:27;91912.31;;;17.94;100.00
6038;BME280;3047;42.600;23.470;2022-09-17T02:38:57;92123.50;;;19.42;100.00
6038;BME280;3047;42.600;23.470;2022-09-17T02:41:35;91981.19;;;18.63;94.12
6038;BME280;3047;42.600;23.470;2022-09-17T02:44:12;92119.97;;;19.77;93.49
6038;BME280;3047;42.600;23.470;2022-09-17T02:47:22;92124.97;;;20.32;86.33
6038;BME280;3047;42.600;23.470;2022-09-17T02:50:17;92014.97;;;20.08;84.10
6038;BME280;3047;42.600;23.470;2022-09-17T02:52:56;91899.34;;;19.59;82.50
6038;BME280;3047;42.600;23.470;2022-09-17T02:55:31;92097.78;;;20.92;82.09
6038;BME280;3047;42.600;23.470;2022-09-17T02:58:10;92061.41;;;20.56;86.67
6038;BME280;3047;42.600;23.470;2022-09-17T03:00:40;92134.75;;;20.80;90.32
6038;BME280;3047;42.600;23.470;2022-09-17T03:03:10;92088.69;;;20.15;95.84
6038;BME280;3047;42.600;23.470;2022-09-17T03:05:41;92053.84;;;19.60;98.14
6038;BME280;3047;42.600;23.470;2022-09-17T03:08:11;91849.13;;;18.18;98.68
6038;BME280;3047;42.600;23.470;2022-09-17T03:10:39;92144.94;;;19.96;99.55
6038;BME280;3047;42.600;23.470;2022-09-17T03:13:06;92146.00;;;19.93;100.00
6038;BME280;3047;42.600;23.470;2022-09-17T03:15:33;92106.25;;;19.67;100.00
6038;BME280;3047;42.600;23.470;2022-09-17T03:18:00;92130.09;;;19.79;100.00
6038;BME280;3047;42.600;23.470;2022-09-17T03:20:26;92107.44;;;19.63;100.00
6038;BME280;3047;42.600;23.470;2022-09-17T03:22:55;92111.59;;;19.64;100.00
6038;BME280;3047;42.600;23.470;2022-09-17T03:25:21;92061.03;;;19.34;100.00
6038;BME280;3047;42.600;23.470;2022-09-17T03:27:48;92063.00;;;19.30;100.00
6038;BME280;3047;42.600;23.470;2022-09-17T03:30:17;92085.81;;;19.33;100.00
6038;BME280;3047;42.600;23.470;2022-09-17T03:32:44;92080.50;;;18.91;100.00
6038;BME280;3047;42.600;23.470;2022-09-17T03:35:11;92001.19;;;18.13;100.00
6038;BME280;3047;42.600;23.470;2022-09-17T03:37:38;92125.00;;;18.66;100.00
6038;BME280;3047;42.600;23.470;2022-09-17T03:40:07;92122.63;;;18.76;100.00
6038;BME280;3047;42.600;23.470;2022-09-17T03:42:34;92105.09;;;18.36;100.00
6038;BME280;3047;42.600;23.470;2022-09-17T03:45:01;91998.94;;;17.74;100.00
6038;BME280;3047;42.600;23.470;2022-09-17T03:47:28;92125.13;;;18.53;100.00
6038;BME280;3047;42.600;23.470;2022-09-17T03:49:55;91935.91;;;17.40;100.00
6038;BME280;3047;42.600;23.470;2022-09-17T03:52:22;92050.34;;;18.16;100.00
6038;BME280;3047;42.600;23.470;2022-09-17T03:54:49;92070.88;;;18.15;100.00
6038;BME280;3047;42.600;23.470;2022-09-17T03:57:17;91935.09;;;17.39;100.00
6038;BME280;3047;42.600;23.470;2022-09-17T03:59:44;91934.63;;;17.34;100.00
6038;BME280;3047;42.600;23.470;2022-09-17T04:02:11;92106.03;;;18.35;100.00
6038;BME280;3047;42.600;23.470;2022-09-17T04:04:38;92096.53;;;18.48;100.00
6038;BME280;3047;42.600;23.470;2022-09-17T04:07:05;92113.94;;;18.54;100.00
6038;BME280;3047;42.600;23.470;2022-09-17T04:09:33;92008.25;;;17.98;100.00
6038;BME280;3047;42.600;23.470;2022-09-17T04:12:01;92104.53;;;18.55;100.00
6038;BME280;3047;42.600;23.470;2022-09-17T04:14:29;92001.06;;;17.92;100.00
6038;BME280;3047;42.600;23.470;2022-09-17T04:16:57;92129.66;;;18.61;100.00
6038;BME280;3047;42.600;23.470;2022-09-17T04:19:24;92132.00;;;18.64;100.00
6038;BME280;3047;42.600;23.470;2022-09-17T04:21:50;92148.75;;;18.68;100.00
6038;BME280;3047;42.600;23.470;2022-09-17T04:24:17;92150.88;;;18.74;100.00
6038;BME280;3047;42.600;23.470;2022-09-17T04:26:44;91998.94;;;17.74;100.00
6038;BME280;3047;42.600;23.470;2022-09-17T04:29:11;92016.22;;;17.82;100.00
6038;BME280;3047;42.600;23.470;2022-09-17T04:31:40;92159.59;;;18.83;100.00
6038;BME280;3047;42.600;23.470;2022-09-17T04:34:13;92119.19;;;18.53;100.00
6038;BME280;3047;42.600;23.470;2022-09-17T04:36:40;92027.41;;;17.92;100.00
6038;BME280;3047;42.600;23.470;2022-09-17T04:39:11;92167.47;;;18.69;100.00
6038;BME280;3047;42.600;23.470;2022-09-17T04:41:38;92022.91;;;17.72;100.00
6038;BME280;3047;42.600;23.470;2022-09-17T04:44:13;92043.84;;;17.77;100.00
6038;BME280;3047;42.600;23.470;2022-09-17T04:46:42;92145.06;;;18.37;100.00
6038;BME280;3047;42.600;23.470;2022-09-17T04:49:12;91905.47;;;16.90;100.00
6038;BME280;3047;42.600;23.470;2022-09-17T04:51:47;92206.00;;;18.78;100.00
6038;BME280;3047;42.600;23.470;2022-09-17T04:54:14;92283.53;;;19.14;100.00
6038;BME280;3047;42.600;23.470;2022-09-17T04:56:42;92237.28;;;18.82;100.00
6038;BME280;3047;42.600;23.470;2022-09-17T04:59:09;92168.22;;;18.36;100.00
6038;BME280;3047;42.600;23.470;2022-09-17T05:01:36;92217.28;;;18.76;100.00
6038;BME280;3047;42.600;23.470;2022-09-17T05:04:04;92226.19;;;18.70;100.00
6038;BME280;3047;42.600;23.470;2022-09-17T05:06:31;92252.28;;;18.87;100.00
6038;BME280;3047;42.600;23.470;2022-09-17T05:09:15;91974.31;;;17.14;100.00
6038;BME280;3047;42.600;23.470;2022-09-17T05:11:42;92316.13;;;19.23;100.00
6038;BME280;3047;42.600;23.470;2022-09-17T05:14:14;92048.16;;;17.76;100.00
6038;BME280;3047;42.600;23.470;2022-09-17T05:16:41;92268.16;;;19.14;100.00
6038;BME280;3047;42.600;23.470;2022-09-17T05:19:13;92257.34;;;19.11;100.00
6038;BME280;3047;42.600;23.470;2022-09-17T05:21:42;92271.31;;;19.18;100.00
6038;BME280;3047;42.600;23.470;2022-09-17T05:24:12;91915.94;;;16.98;100.00
6038;BME280;3047;42.600;23.470;2022-09-17T05:26:38;92253.50;;;19.05;100.00
6038;BME280;3047;42.600;23.470;2022-09-17T05:29:06;92249.06;;;19.07;100.00
6038;BME280;3047;42.600;23.470;2022-09-17T05:31:33;92248.25;;;19.07;100.00
6038;BME280;3047;42.600;23.470;2022-09-17T05:33:59;92256.50;;;18.99;100.00
6038;BME280;3047;42.600;23.470;2022-09-17T05:36:28;91992.34;;;17.24;100.00
6038;BME280;3047;42.600;23.470;2022-09-17T05:38:54;92238.34;;;18.91;100.00
6038;BME280;3047;42.600;23.470;2022-09-17T05:41:23;92219.25;;;18.84;100.00
6038;BME280;3047;42.600;23.470;2022-09-17T05:44:44;92101.59;;;18.26;100.00
6038;BME280;3047;42.600;23.470;2022-09-17T05:47:20;92028.44;;;17.66;100.00
6038;BME280;3047;42.600;23.470;2022-09-17T05:50:19;92006.31;;;17.66;100.00
6038;BME280;3047;42.600;23.470;2022-09-17T05:53:12;92216.59;;;19.08;100.00
6038;BME280;3047;42.600;23.470;2022-09-17T05:55:55;92235.94;;;19.12;100.00
6038;BME280;3047;42.600;23.470;2022-09-17T05:58:22;92236.06;;;19.10;100.00
6038;BME280;3047;42.600;23.470;2022-09-17T06:03:52;92231.47;;;18.91;100.00
6038;BME280;3047;42.600;23.470;2022-09-17T06:06:27;92277.25;;;19.18;100.00
6038;BME280;3047;42.600;23.470;2022-09-17T06:08:58;92262.69;;;19.08;100.00
6038;BME280;3047;42.600;23.470;2022-09-17T06:11:25;92240.09;;;18.90;100.00
6038;BME280;3047;42.600;23.470;2022-09-17T06:13:52;92207.75;;;18.78;100.00
6038;BME280;3047;42.600;23.470;2022-09-17T06:16:20;92254.19;;;19.07;100.00
6038;BME280;3047;42.600;23.470;2022-09-17T06:22:10;92269.56;;;18.96;100.00
6038;BME280;3047;42.600;23.470;2022-09-17T06:24:41;92069.38;;;17.53;100.00
6038;BME280;3047;42.600;23.470;2022-09-17T06:27:30;92250.97;;;18.70;100.00
6038;BME280;3047;42.600;23.470;2022-09-17T06:29:57;92181.16;;;18.21;100.00
6038;BME280;3047;42.600;23.470;2022-09-17T06:32:24;92034.91;;;17.23;100.00
6038;BME280;3047;42.600;23.470;2022-09-17T06:34:51;92282.19;;;18.86;100.00
6038;BME280;3047;42.600;23.470;2022-09-17T06:37:18;91987.16;;;16.89;100.00
6038;BME280;3047;42.600;23.470;2022-09-17T06:39:46;92289.25;;;18.83;100.00
6038;BME280;3047;42.600;23.470;2022-09-17T06:42:13;92329.00;;;19.11;100.00
6038;BME280;3047;42.600;23.470;2022-09-17T06:44:40;92258.38;;;18.38;100.00
6038;BME280;3047;42.600;23.470;2022-09-17T06:47:07;92297.59;;;18.49;100.00
6038;BME280;3047;42.600;23.470;2022-09-17T06:49:39;92310.25;;;18.40;100.00
6038;BME280;3047;42.600;23.470;2022-09-17T06:52:09;92371.22;;;18.70;100.00
6038;BME280;3047;42.600;23.470;2022-09-17T06:54:36;92357.47;;;18.71;100.00
6038;BME280;3047;42.600;23.470;2022-09-17T06:57:04;92267.59;;;18.40;100.00
6038;BME280;3047;42.600;23.470;2022-09-17T06:59:32;92259.13;;;18.27;100.00
6038;BME280;3047;42.600;23.470;2022-09-17T07:01:58;92234.03;;;18.21;100.00
6038;BME280;3047;42.600;23.470;2022-09-17T07:04:25;92314.09;;;18.69;100.00
6038;BME280;3047;42.600;23.470;2022-09-17T07:06:52;92277.78;;;18.64;100.00
6038;BME280;3047;42.600;23.470;2022-09-17T07:09:19;92213.63;;;18.32;100.00
6038;BME280;3047;42.600;23.470;2022-09-17T07:11:46;92276.75;;;18.67;100.00
6038;BME280;3047;42.600;23.470;2022-09-17T07:14:14;92166.72;;;18.09;100.00
6038;BME280;3047;42.600;23.470;2022-09-17T07:16:43;92104.34;;;17.76;100.00
6038;BME280;3047;42.600;23.470;2022-09-17T07:19:10;92149.16;;;18.40;100.00
6038;BME280;3047;42.600;23.470;2022-09-17T07:21:37;92212.44;;;19.07;100.00
6038;BME280;3047;42.600;23.470;2022-09-17T07:24:04;92225.72;;;19.34;100.00
6038;BME280;3047;42.600;23.470;2022-09-17T07:26:30;92178.94;;;19.10;100.00
6038;BME280;3047;42.600;23.470;2022-09-17T07:28:57;92227.38;;;19.69;100.00
6038;BME280;3047;42.600;23.470;2022-09-17T07:31:26;92170.19;;;19.35;100.00
6038;BME280;3047;42.600;23.470;2022-09-17T07:33:58;92240.38;;;19.88;100.00
6038;BME280;3047;42.600;23.470;2022-09-17T07:40:36;91857.06;;;17.93;100.00
6038;BME280;3047;42.600;23.470;2022-09-17T07:43:24;91941.34;;;18.60;100.00
6038;BME280;3047;42.600;23.470;2022-09-17T07:45:56;92243.97;;;20.40;100.00
6038;BME280;3047;42.600;23.470;2022-09-17T07:48:55;92226.00;;;20.52;100.00
6038;BME280;3047;42.600;23.470;2022-09-17T07:51:23;92124.66;;;19.93;100.00
6038;BME280;3047;42.600;23.470;2022-09-17T07:53:57;92128.16;;;19.92;100.00
6038;BME280;3047;42.600;23.470;2022-09-17T07:56:31;92213.97;;;20.52;100.00
6038;BME280;3047;42.600;23.470;2022-09-17T07:59:08;92023.06;;;19.39;100.00
6038;BME280;3047;42.600;23.470;2022-09-17T08:01:38;92043.28;;;19.53;100.00
6038;BME280;3047;42.600;23.470;2022-09-17T08:04:12;92232.00;;;20.62;100.00
6038;BME280;3047;42.600;23.470;2022-09-17T08:06:42;91939.47;;;18.85;100.00
6038;BME280;3047;42.600;23.470;2022-09-17T08:09:13;92090.16;;;19.97;100.00
6038;BME280;3047;42.600;23.470;2022-09-17T08:11:43;92100.19;;;20.21;100.00
6038;BME280;3047;42.600;23.470;2022-09-17T08:14:18;92218.38;;;21.03;100.00
6038;BME280;3047;42.600;23.470;2022-09-17T08:16:45;92207.66;;;20.98;100.00
6038;BME280;3047;42.600;23.470;2022-09-17T08:19:13;92186.44;;;20.96;100.00
6038;BME280;3047;42.600;23.470;2022-09-17T08:21:42;91940.44;;;19.37;100.00
6038;BME280;3047;42.600;23.470;2022-09-17T08:24:12;92160.44;;;20.89;100.00
6038;BME280;3047;42.600;23.470;2022-09-17T08:26:41;92198.06;;;21.31;100.00
6038;BME280;3047;42.600;23.470;2022-09-17T08:29:08;92125.03;;;21.14;100.00
6038;BME280;3047;42.600;23.470;2022-09-17T08:31:35;92148.47;;;21.70;100.00
6038;BME280;3047;42.600;23.470;2022-09-17T08:34:06;92089.56;;;21.38;100.00
6038;BME280;3047;42.600;23.470;2022-09-17T08:36:36;92117.47;;;21.62;100.00
6038;BME280;3047;42.600;23.470;2022-09-17T08:39:03;92174.06;;;21.82;100.00
6038;BME280;3047;42.600;23.470;2022-09-17T08:41:38;92210.47;;;21.87;100.00
6038;BME280;3047;42.600;23.470;2022-09-17T08:44:15;92209.66;;;21.77;100.00
6038;BME280;3047;42.600;23.470;2022-09-17T08:46:47;92181.22;;;21.68;100.00
6038;BME280;3047;42.600;23.470;2022-09-17T08:49:24;92198.44;;;21.87;100.00
6038;BME280;3047;42.600;23.470;2022-09-17T08:52:08;92163.06;;;21.60;100.00
6038;BME280;3047;42.600;23.470;2022-09-17T08:54:41;92132.69;;;21.35;100.00
6038;BME280;3047;42.600;23.470;2022-09-17T08:57:20;92165.09;;;21.66;100.00
6038;BME280;3047;42.600;23.470;2022-09-17T08:59:56;92182.84;;;21.69;100.00
6038;BME280;3047;42.600;23.470;2022-09-17T09:02:35;92198.97;;;21.71;100.00
6038;BME280;3047;42.600;23.470;2022-09-17T09:05:09;92200.81;;;21.69;100.00
6038;BME280;3047;42.600;23.470;2022-09-17T09:07:44;92206.38;;;21.65;100.00
6038;BME280;3047;42.600;23.470;2022-09-17T09:10:17;92152.78;;;21.20;100.00
6038;BME280;3047;42.600;23.470;2022-09-17T09:12:47;92207.72;;;21.59;100.00
6038;BME280;3047;42.600;23.470;2022-09-17T09:15:29;92147.28;;;21.04;100.00
6038;BME280;3047;42.600;23.470;2022-09-17T09:18:00;92166.63;;;21.08;100.00
6038;BME280;3047;42.600;23.470;2022-09-17T09:20:38;92220.28;;;21.32;100.00
6038;BME280;3047;42.600;23.470;2022-09-17T09:23:16;92225.53;;;21.30;100.00
6038;BME280;3047;42.600;23.470;2022-09-17T09:25:51;92212.69;;;21.30;100.00
6038;BME280;3047;42.600;23.470;2022-09-17T09:28:31;92218.34;;;21.24;100.00
6038;BME280;3047;42.600;23.470;2022-09-17T09:31:08;92222.59;;;21.14;100.00
6038;BME280;3047;42.600;23.470;2022-09-17T09:33:43;92241.47;;;21.03;100.00
6038;BME280;3047;42.600;23.470;2022-09-17T09:36:13;92250.38;;;20.99;100.00
6038;BME280;3047;42.600;23.470;2022-09-17T09:38:45;92248.28;;;20.93;100.00
6038;BME280;3047;42.600;23.470;2022-09-17T09:41:17;92261.75;;;20.85;100.00
6038;BME280;3047;42.600;23.470;2022-09-17T09:43:46;92271.00;;;20.77;100.00
6038;BME280;3047;42.600;23.470;2022-09-17T09:46:28;92261.72;;;20.64;100.00
6038;BME280;3047;42.600;23.470;2022-09-17T09:49:07;92266.13;;;20.73;100.00
6038;BME280;3047;42.600;23.470;2022-09-17T09:51:46;92283.28;;;20.73;100.00
6038;BME280;3047;42.600;23.470;2022-09-17T09:54:27;92273.75;;;20.64;100.00
6038;BME280;3047;42.600;23.470;2022-09-17T09:56:56;92284.47;;;20.69;100.00
6038;BME280;3047;42.600;23.470;2022-09-17T09:59:27;92176.28;;;19.88;100.00
6038;BME280;3047;42.600;23.470;2022-09-17T10:01:54;92278.69;;;20.56;100.00
6038;BME280;3047;42.600;23.470;2022-09-17T10:04:22;92162.34;;;19.59;100.00
6038;BME280;3047;42.600;23.470;2022-09-17T10:06:52;92281.44;;;20.20;100.00
6038;BME280;3047;42.600;23.470;2022-09-17T10:09:21;92261.28;;;20.16;100.00
6038;BME280;3047;42.600;23.470;2022-09-17T10:11:59;92229.75;;;19.93;100.00
6038;BME280;3047;42.600;23.470;2022-09-17T10:14:27;92239.09;;;19.94;100.00
6038;BME280;3047;42.600;23.470;2022-09-17T10:17:14;92209.50;;;19.90;100.00
6038;BME280;3047;42.600;23.470;2022-09-17T10:19:42;92154.78;;;19.68;100.00
6038;BME280;3047;42.600;23.470;2022-09-17T10:22:23;92202.94;;;19.97;100.00
6038;BME280;3047;42.600;23.470;2022-09-17T10:24:53;92150.03;;;19.64;100.00
6038;BME280;3047;42.600;23.470;2022-09-17T10:27:22;92138.72;;;19.55;100.00
6038;BME280;3047;42.600;23.470;2022-09-17T10:30:00;92163.28;;;19.80;100.00
6038;BME280;3047;42.600;23.470;2022-09-17T10:32:28;92185.25;;;19.94;100.00
6038;BME280;3047;42.600;23.470;2022-09-17T10:35:00;92155.69;;;19.90;100.00
6038;BME280;3047;42.600;23.470;2022-09-17T10:37:33;92185.63;;;19.89;100.00
6038;BME280;3047;42.600;23.470;2022-09-17T10:40:26;92152.50;;;19.65;100.00
6038;BME280;3047;42.600;23.470;2022-09-17T10:43:21;92160.81;;;19.90;100.00
6038;BME280;3047;42.600;23.470;2022-09-17T10:45:56;92048.75;;;19.16;100.00
6038;BME280;3047;42.600;23.470;2022-09-17T10:48:26;92110.16;;;19.82;100.00
6038;BME280;3047;42.600;23.470;2022-09-17T10:50:55;92099.00;;;19.72;100.00
6038;BME280;3047;42.600;23.470;2022-09-17T10:53:23;92085.97;;;19.52;100.00
6038;BME280;3047;42.600;23.470;2022-09-17T10:56:00;92114.88;;;19.66;100.00
6038;BME280;3047;42.600;23.470;2022-09-17T10:58:45;92071.56;;;19.51;100.00
6038;BME280;3047;42.600;23.470;2022-09-17T11:01:28;92056.34;;;19.39;100.00
6038;BME280;3047;42.600;23.470;2022-09-17T11:04:14;92019.84;;;19.25;100.00
6038;BME280;3047;42.600;23.470;2022-09-17T11:09:52;92064.25;;;19.36;100.00
6038;BME280;3047;42.600;23.470;2022-09-17T11:12:35;92116.97;;;19.61;100.00
6038;BME280;3047;42.600;23.470;2022-09-17T11:15:16;92118.38;;;19.65;100.00
6038;BME280;3047;42.600;23.470;2022-09-17T11:18:00;92039.91;;;19.09;100.00
6038;BME280;3047;42.600;23.470;2022-09-17T11:20:42;92061.38;;;19.29;100.00
6038;BME280;3047;42.600;23.470;2022-09-17T11:23:29;92115.91;;;19.52;100.00
6038;BME280;3047;42.600;23.470;2022-09-17T11:26:00;92119.03;;;19.56;100.00
6038;BME280;3047;42.600;23.470;2022-09-17T11:28:42;92125.25;;;19.53;100.00
6038;BME280;3047;42.600;23.470;2022-09-17T11:31:23;92124.06;;;19.57;100.00
6038;BME280;3047;42.600;23.470;2022-09-17T11:34:09;92111.75;;;19.40;100.00
6038;BME280;3047;42.600;23.470;2022-09-17T11:36:47;92129.53;;;19.52;100.00
6038;BME280;3047;42.600;23.470;2022-09-17T11:39:20;92120.94;;;19.42;100.00
6038;BME280;3047;42.600;23.470;2022-09-17T11:41:51;92149.91;;;19.54;100.00
6038;BME280;3047;42.600;23.470;2022-09-17T11:44:24;92168.78;;;19.64;100.00
6038;BME280;3047;42.600;23.470;2022-09-17T11:46:55;92167.16;;;19.63;100.00
6038;BME280;3047;42.600;23.470;2022-09-17T11:49:28;92050.38;;;18.95;100.00
6038;BME280;3047;42.600;23.470;2022-09-17T11:52:01;92147.94;;;19.69;100.00
6038;BME280;3047;42.600;23.470;2022-09-17T11:54:34;92134.28;;;19.68;100.00
6038;BME280;3047;42.600;23.470;2022-09-17T11:57:08;92144.81;;;19.65;100.00
6038;BME280;3047;42.600;23.470;2022-09-17T11:59:42;92114.28;;;19.51;100.00
6038;BME280;3047;42.600;23.470;2022-09-17T12:02:18;92143.84;;;19.55;100.00
6038;BME280;3047;42.600;23.470;2022-09-17T12:04:53;92049.94;;;18.90;100.00
6038;BME280;3047;42.600;23.470;2022-09-17T12:07:28;92116.63;;;19.43;100.00
6038;BME280;3047;42.600;23.470;2022-09-17T12:10:02;92121.75;;;19.43;100.00
6038;BME280;3047;42.600;23.470;2022-09-17T12:12:40;92128.88;;;19.39;100.00
6038;BME280;3047;42.600;23.470;2022-09-17T12:15:17;92100.97;;;19.14;100.00
6038;BME280;3047;42.600;23.470;2022-09-17T12:17:49;92124.22;;;19.33;100.00
6038;BME280;3047;42.600;23.470;2022-09-17T12:20:24;92131.78;;;19.35;100.00
6038;BME280;3047;42.600;23.470;2022-09-17T12:22:54;92049.47;;;18.73;100.00
6038;BME280;3047;42.600;23.470;2022-09-17T12:25:23;92129.00;;;19.26;100.00
6038;BME280;3047;42.600;23.470;2022-09-17T12:27:54;92130.63;;;19.27;100.00
6038;BME280;3047;42.600;23.470;2022-09-17T12:30:29;92096.78;;;18.90;100.00
6038;BME280;3047;42.600;23.470;2022-09-17T12:33:11;92146.56;;;19.20;100.00
6038;BME280;3047;42.600;23.470;2022-09-17T12:39:01;92124.25;;;19.11;100.00
6038;BME280;3047;42.600;23.470;2022-09-17T12:41:42;92122.50;;;19.11;100.00
6038;BME280;3047;42.600;23.470;2022-09-17T12:44:25;92078.88;;;18.79;100.00
6038;BME280;3047;42.600;23.470;2022-09-17T12:47:13;92103.75;;;18.99;100.00
6038;BME280;3047;42.600;23.470;2022-09-17T12:49:55;92109.34;;;19.16;100.00
6038;BME280;3047;42.600;23.470;2022-09-17T12:52:33;92047.16;;;18.70;100.00
6038;BME280;3047;42.600;23.470;2022-09-17T12:55:20;92026.44;;;18.40;100.00
6038;BME280;3047;42.600;23.470;2022-09-17T12:57:57;92066.19;;;18.66;100.00
6038;BME280;3047;42.600;23.470;2022-09-17T13:00:25;92076.69;;;18.74;100.00
6038;BME280;3047;42.600;23.470;2022-09-17T13:03:00;92110.06;;;19.07;100.00
6038;BME280;3047;42.600;23.470;2022-09-17T13:08:58;92087.72;;;18.97;100.00
6038;BME280;3047;42.600;23.470;2022-09-17T13:11:59;92100.41;;;18.99;100.00
6038;BME280;3047;42.600;23.470;2022-09-17T13:14:35;92074.00;;;18.87;100.00
6038;BME280;3047;42.600;23.470;2022-09-17T13:17:16;92082.38;;;19.00;100.00
6038;BME280;3047;42.600;23.470;2022-09-17T13:19:50;92077.84;;;19.04;100.00
6038;BME280;3047;42.600;23.470;2022-09-17T13:22:20;92075.84;;;19.08;100.00
6038;BME280;3047;42.600;23.470;2022-09-17T13:25:03;91880.84;;;17.82;100.00
6038;BME280;3047;42.600;23.470;2022-09-17T13:27:31;92062.59;;;18.91;100.00
6038;BME280;3047;42.600;23.470;2022-09-17T13:30:03;92053.38;;;19.11;100.00
6038;BME280;3047;42.600;23.470;2022-09-17T13:32:57;92081.88;;;19.29;100.00
6038;BME280;3047;42.600;23.470;2022-09-17T13:35:47;92067.78;;;19.35;100.00
6038;BME280;3047;42.600;23.470;2022-09-17T13:38:15;92068.59;;;19.24;100.00
6038;BME280;3047;42.600;23.470;2022-09-17T13:40:43;92063.16;;;19.17;100.00
6038;BME280;3047;42.600;23.470;2022-09-17T13:43:13;92030.38;;;19.00;100.00
6038;BME280;3047;42.600;23.470;2022-09-17T13:46:09;92057.53;;;19.23;100.00
6038;BME280;3047;42.600;23.470;2022-09-17T13:48:45;92041.81;;;19.28;100.00
6038;BME280;3047;42.600;23.470;2022-09-17T13:51:52;92036.69;;;19.28;100.00
6038;BME280;3047;42.600;23.470;2022-09-17T13:54:20;91978.25;;;19.01;100.00
6038;BME280;3047;42.600;23.470;2022-09-17T13:57:04;91997.25;;;19.31;100.00
6038;BME280;3047;42.600;23.470;2022-09-17T13:59:34;91955.69;;;19.06;100.00